Basalt, CO (81621)

1:57 AM MDT on May 25, 2015 (GMT -0600)
Capitol Creek Valley | | Change Station
CLOSE
Current Station
Personal Weather Station
Location: Snowmass, CO
Elevation: 7441 ft
Nearby Weather Stations

Elev 7441 ft 39.29 °N, 107.01 °W | Updated 17 seconds ago

Overcast
Overcast
36.5 °F
Feels Like 36 °F
N
1.6
Wind Variable Wind from SE
Gusts 3.1 mph

Today
High -- | Low -- °F
--% Chance of Precip.
Yesterday
High -- | Low -- °F
Precip. -- in
5:46 AM 8:23 PM
Waxing Crescent, 46% visible
Pressure 29.82 in
Visibility 10.0 miles
Clouds Mostly Cloudy 1200 ft
Mostly Cloudy 2200 ft
Overcast 2800 ft
Windchill 36 °F
Dew Point 34 °F
Humidity 92%
Rainfall 0.02 in
Snow Depth Not available.
UV 0 out of 12
Pollen 7.00 out of 12
Air Quality Not available.
Flu Activity Sporadic
METAR KASE 250753Z AUTO 00000KT 10SM BKN012 BKN022 OVC028 01/01 A3000 RMK AO2 RAB35E44SNE35 SLP096 P0003 T00110006

More Conditions Fewer Conditions

Pressure 29.82 in
Visibility 10.0 miles
Clouds Mostly Cloudy 1200 ft
Mostly Cloudy 2200 ft
Overcast 2800 ft
Windchill 36 °F
Dew Point 34 °F
Humidity 92%
Rainfall 0.02 in
Snow Depth Not available.
UV 0 out of 12
Pollen 7.00 out of 12
Air Quality Not available.
Flu Activity Sporadic
METAR KASE 250753Z AUTO 00000KT 10SM BKN012 BKN022 OVC028 01/01 A3000 RMK AO2 RAB35E44SNE35 SLP096 P0003 T00110006

More Conditions Fewer Conditions

10-Day Weather Forecast

Almanac

Astronomy

May. 25, 2015 Rise Set
Actual Time
Civil Twilight
Nautical Twilight
Astronomical Twilight
Moon
Length of Visible Light
Length of Day
Tomorrow will be .
, % of the Moon is Illuminated

Today's Extremes

State Highs State Lows

Community

WunderPhotos

Upload Photos

1,823,959 photos uploaded!

WunderBlogs® & News

Nearby

Air Quality

  Air Quality AQ Index Pollutant
Not available.

Snow Depth

Station Depth Elevation

Earthquake Activity

City Distance Mag. Time & Date
Minimum magnitude displayed is 2.5.

Coastal Water Temperatures

Place Temperature

Stations

Nearby Weather Stations

Station Location Temp. Windchill Dew Point Humidity Wind Precip. Elev Updated Type